sensor_id;sensor_type;location;lat;lon;timestamp;P1;durP1;ratioP1;P2;durP2;ratioP2
40284;SDS011;25997;50.214;19.354;2022-09-27T00:02:08;75.05;;;65.10;;
40284;SDS011;25997;50.214;19.354;2022-09-27T00:05:11;82.43;;;69.43;;
40284;SDS011;25997;50.214;19.354;2022-09-27T00:08:14;79.03;;;65.88;;
40284;SDS011;25997;50.214;19.354;2022-09-27T00:11:18;76.22;;;62.47;;
40284;SDS011;25997;50.214;19.354;2022-09-27T00:14:27;73.53;;;63.47;;
40284;SDS011;25997;50.214;19.354;2022-09-27T00:17:30;72.43;;;59.53;;
40284;SDS011;25997;50.214;19.354;2022-09-27T00:20:33;67.07;;;56.42;;
40284;SDS011;25997;50.214;19.354;2022-09-27T00:23:36;59.75;;;49.90;;
40284;SDS011;25997;50.214;19.354;2022-09-27T00:26:39;45.78;;;40.80;;
40284;SDS011;25997;50.214;19.354;2022-09-27T00:29:43;44.13;;;39.33;;
40284;SDS011;25997;50.214;19.354;2022-09-27T00:32:46;48.30;;;40.70;;
40284;SDS011;25997;50.214;19.354;2022-09-27T00:35:48;52.25;;;46.40;;
40284;SDS011;25997;50.214;19.354;2022-09-27T00:38:51;47.65;;;40.08;;
40284;SDS011;25997;50.214;19.354;2022-09-27T00:41:54;49.00;;;43.47;;
40284;SDS011;25997;50.214;19.354;2022-09-27T00:45:00;58.92;;;48.72;;
40284;SDS011;25997;50.214;19.354;2022-09-27T00:48:19;46.97;;;41.78;;
40284;SDS011;25997;50.214;19.354;2022-09-27T00:51:27;46.97;;;41.63;;
40284;SDS011;25997;50.214;19.354;2022-09-27T00:54:31;96.93;;;75.43;;
40284;SDS011;25997;50.214;19.354;2022-09-27T00:57:37;130.95;;;97.40;;
40284;SDS011;25997;50.214;19.354;2022-09-27T01:00:43;109.00;;;89.05;;
40284;SDS011;25997;50.214;19.354;2022-09-27T01:03:50;103.70;;;81.97;;
40284;SDS011;25997;50.214;19.354;2022-09-27T01:06:57;105.15;;;83.85;;
40284;SDS011;25997;50.214;19.354;2022-09-27T01:10:00;84.55;;;71.78;;
40284;SDS011;25997;50.214;19.354;2022-09-27T01:13:05;93.97;;;74.63;;
40284;SDS011;25997;50.214;19.354;2022-09-27T01:16:17;77.50;;;66.60;;
40284;SDS011;25997;50.214;19.354;2022-09-27T01:19:41;63.13;;;55.35;;
40284;SDS011;25997;50.214;19.354;2022-09-27T01:23:04;52.35;;;46.92;;
40284;SDS011;25997;50.214;19.354;2022-09-27T01:26:30;51.15;;;45.42;;
40284;SDS011;25997;50.214;19.354;2022-09-27T01:29:48;54.03;;;47.95;;
40284;SDS011;25997;50.214;19.354;2022-09-27T01:33:10;51.47;;;45.72;;
40284;SDS011;25997;50.214;19.354;2022-09-27T01:36:23;50.45;;;43.00;;
40284;SDS011;25997;50.214;19.354;2022-09-27T01:39:33;67.85;;;53.28;;
40284;SDS011;25997;50.214;19.354;2022-09-27T01:43:05;45.10;;;37.88;;
40284;SDS011;25997;50.214;19.354;2022-09-27T01:46:16;39.97;;;34.50;;
40284;SDS011;25997;50.214;19.354;2022-09-27T01:49:47;46.08;;;36.25;;
40284;SDS011;25997;50.214;19.354;2022-09-27T01:52:57;39.95;;;34.22;;
40284;SDS011;25997;50.214;19.354;2022-09-27T01:56:13;42.42;;;37.67;;
40284;SDS011;25997;50.214;19.354;2022-09-27T01:59:25;61.78;;;49.88;;
40284;SDS011;25997;50.214;19.354;2022-09-27T02:03:06;262.58;;;205.05;;
40284;SDS011;25997;50.214;19.354;2022-09-27T02:06:16;73.43;;;49.55;;
40284;SDS011;25997;50.214;19.354;2022-09-27T02:09:35;91.15;;;55.42;;
40284;SDS011;25997;50.214;19.354;2022-09-27T02:13:07;65.10;;;50.17;;
40284;SDS011;25997;50.214;19.354;2022-09-27T02:16:20;63.58;;;52.85;;
40284;SDS011;25997;50.214;19.354;2022-09-27T02:19:35;63.63;;;53.47;;
40284;SDS011;25997;50.214;19.354;2022-09-27T02:22:43;69.78;;;57.53;;
40284;SDS011;25997;50.214;19.354;2022-09-27T02:25:52;64.63;;;57.30;;
40284;SDS011;25997;50.214;19.354;2022-09-27T02:28:59;63.42;;;53.80;;
40284;SDS011;25997;50.214;19.354;2022-09-27T02:32:16;70.28;;;61.15;;
40284;SDS011;25997;50.214;19.354;2022-09-27T02:35:21;102.50;;;88.60;;
40284;SDS011;25997;50.214;19.354;2022-09-27T02:38:27;75.07;;;59.28;;
40284;SDS011;25997;50.214;19.354;2022-09-27T02:41:31;47.78;;;42.42;;
40284;SDS011;25997;50.214;19.354;2022-09-27T02:44:34;96.05;;;62.03;;
40284;SDS011;25997;50.214;19.354;2022-09-27T02:47:45;52.13;;;38.05;;
40284;SDS011;25997;50.214;19.354;2022-09-27T02:51:02;90.13;;;65.47;;
40284;SDS011;25997;50.214;19.354;2022-09-27T02:54:20;86.40;;;69.72;;
40284;SDS011;25997;50.214;19.354;2022-09-27T02:57:38;64.88;;;47.00;;
40284;SDS011;25997;50.214;19.354;2022-09-27T03:01:02;35.58;;;26.50;;
40284;SDS011;25997;50.214;19.354;2022-09-27T03:04:38;49.38;;;34.55;;
40284;SDS011;25997;50.214;19.354;2022-09-27T03:07:45;121.03;;;81.95;;
40284;SDS011;25997;50.214;19.354;2022-09-27T03:10:49;94.75;;;61.53;;
40284;SDS011;25997;50.214;19.354;2022-09-27T03:13:52;36.63;;;32.25;;
40284;SDS011;25997;50.214;19.354;2022-09-27T03:16:55;21.08;;;18.88;;
40284;SDS011;25997;50.214;19.354;2022-09-27T03:20:16;22.85;;;19.38;;
40284;SDS011;25997;50.214;19.354;2022-09-27T03:26:30;66.32;;;53.35;;
40284;SDS011;25997;50.214;19.354;2022-09-27T03:29:33;56.55;;;44.28;;
40284;SDS011;25997;50.214;19.354;2022-09-27T03:32:41;62.25;;;51.90;;
40284;SDS011;25997;50.214;19.354;2022-09-27T03:36:02;40.53;;;30.50;;
40284;SDS011;25997;50.214;19.354;2022-09-27T03:39:05;27.75;;;23.38;;
40284;SDS011;25997;50.214;19.354;2022-09-27T03:42:09;28.00;;;21.67;;
40284;SDS011;25997;50.214;19.354;2022-09-27T03:45:18;33.40;;;24.23;;
40284;SDS011;25997;50.214;19.354;2022-09-27T03:48:20;27.85;;;22.85;;
40284;SDS011;25997;50.214;19.354;2022-09-27T03:51:23;22.67;;;19.38;;
40284;SDS011;25997;50.214;19.354;2022-09-27T03:54:25;21.45;;;19.17;;
40284;SDS011;25997;50.214;19.354;2022-09-27T03:57:30;19.73;;;17.75;;
40284;SDS011;25997;50.214;19.354;2022-09-27T04:00:32;20.08;;;18.02;;
40284;SDS011;25997;50.214;19.354;2022-09-27T04:03:36;27.10;;;24.17;;
40284;SDS011;25997;50.214;19.354;2022-09-27T04:06:47;30.92;;;26.30;;
40284;SDS011;25997;50.214;19.354;2022-09-27T04:09:50;27.10;;;23.95;;
40284;SDS011;25997;50.214;19.354;2022-09-27T04:12:54;29.67;;;26.63;;
40284;SDS011;25997;50.214;19.354;2022-09-27T04:16:00;26.20;;;23.55;;
40284;SDS011;25997;50.214;19.354;2022-09-27T04:19:26;24.52;;;22.00;;
40284;SDS011;25997;50.214;19.354;2022-09-27T04:22:42;25.50;;;22.73;;
40284;SDS011;25997;50.214;19.354;2022-09-27T04:25:46;24.00;;;21.50;;
40284;SDS011;25997;50.214;19.354;2022-09-27T04:29:13;34.13;;;28.52;;
40284;SDS011;25997;50.214;19.354;2022-09-27T04:32:22;36.35;;;31.83;;
40284;SDS011;25997;50.214;19.354;2022-09-27T04:35:43;44.22;;;37.50;;
40284;SDS011;25997;50.214;19.354;2022-09-27T04:39:05;48.30;;;40.95;;
40284;SDS011;25997;50.214;19.354;2022-09-27T04:42:14;31.40;;;28.00;;
40284;SDS011;25997;50.214;19.354;2022-09-27T04:45:19;24.83;;;22.33;;
40284;SDS011;25997;50.214;19.354;2022-09-27T04:48:21;38.60;;;32.70;;
40284;SDS011;25997;50.214;19.354;2022-09-27T04:51:24;35.13;;;28.95;;
40284;SDS011;25997;50.214;19.354;2022-09-27T04:54:28;23.15;;;19.98;;
40284;SDS011;25997;50.214;19.354;2022-09-27T04:57:43;54.28;;;45.75;;
40284;SDS011;25997;50.214;19.354;2022-09-27T05:00:47;41.67;;;36.20;;
40284;SDS011;25997;50.214;19.354;2022-09-27T05:04:20;74.60;;;54.55;;
40284;SDS011;25997;50.214;19.354;2022-09-27T05:07:26;47.47;;;36.13;;
40284;SDS011;25997;50.214;19.354;2022-09-27T05:10:34;70.20;;;53.90;;
40284;SDS011;25997;50.214;19.354;2022-09-27T05:13:37;84.03;;;67.20;;
40284;SDS011;25997;50.214;19.354;2022-09-27T05:16:41;50.58;;;42.30;;
40284;SDS011;25997;50.214;19.354;2022-09-27T05:20:04;37.17;;;33.20;;
40284;SDS011;25997;50.214;19.354;2022-09-27T05:23:14;59.28;;;52.97;;
40284;SDS011;25997;50.214;19.354;2022-09-27T05:26:16;50.20;;;44.50;;
40284;SDS011;25997;50.214;19.354;2022-09-27T05:29:19;47.20;;;40.45;;
40284;SDS011;25997;50.214;19.354;2022-09-27T05:32:39;33.45;;;30.00;;
40284;SDS011;25997;50.214;19.354;2022-09-27T05:36:00;41.92;;;34.70;;
40284;SDS011;25997;50.214;19.354;2022-09-27T05:39:05;60.65;;;48.78;;
40284;SDS011;25997;50.214;19.354;2022-09-27T05:42:09;91.43;;;66.55;;
40284;SDS011;25997;50.214;19.354;2022-09-27T05:45:14;86.13;;;70.57;;
40284;SDS011;25997;50.214;19.354;2022-09-27T05:48:19;87.38;;;68.45;;
40284;SDS011;25997;50.214;19.354;2022-09-27T05:51:35;91.68;;;73.22;;
40284;SDS011;25997;50.214;19.354;2022-09-27T05:54:38;330.77;;;161.45;;
40284;SDS011;25997;50.214;19.354;2022-09-27T05:57:40;204.35;;;102.05;;
40284;SDS011;25997;50.214;19.354;2022-09-27T06:00:43;214.88;;;115.32;;
40284;SDS011;25997;50.214;19.354;2022-09-27T06:04:10;113.25;;;67.25;;
40284;SDS011;25997;50.214;19.354;2022-09-27T06:07:39;54.60;;;34.10;;
40284;SDS011;25997;50.214;19.354;2022-09-27T06:10:58;32.28;;;22.08;;
40284;SDS011;25997;50.214;19.354;2022-09-27T06:14:05;29.75;;;18.30;;
40284;SDS011;25997;50.214;19.354;2022-09-27T06:17:16;17.63;;;11.88;;
40284;SDS011;25997;50.214;19.354;2022-09-27T06:20:20;9.30;;;8.00;;
40284;SDS011;25997;50.214;19.354;2022-09-27T06:23:23;9.38;;;7.72;;
40284;SDS011;25997;50.214;19.354;2022-09-27T06:26:27;10.43;;;8.90;;
40284;SDS011;25997;50.214;19.354;2022-09-27T06:29:47;12.75;;;10.45;;
40284;SDS011;25997;50.214;19.354;2022-09-27T06:33:05;9.85;;;8.73;;
40284;SDS011;25997;50.214;19.354;2022-09-27T06:36:15;9.85;;;8.85;;
40284;SDS011;25997;50.214;19.354;2022-09-27T06:39:18;8.50;;;7.70;;
40284;SDS011;25997;50.214;19.354;2022-09-27T06:42:46;9.32;;;7.90;;
40284;SDS011;25997;50.214;19.354;2022-09-27T06:45:57;10.63;;;8.73;;
40284;SDS011;25997;50.214;19.354;2022-09-27T06:49:34;10.15;;;9.13;;
40284;SDS011;25997;50.214;19.354;2022-09-27T06:52:39;9.50;;;8.70;;
40284;SDS011;25997;50.214;19.354;2022-09-27T06:55:48;10.73;;;9.63;;
40284;SDS011;25997;50.214;19.354;2022-09-27T06:58:51;7.93;;;7.22;;
40284;SDS011;25997;50.214;19.354;2022-09-27T07:02:17;8.80;;;7.25;;
40284;SDS011;25997;50.214;19.354;2022-09-27T07:05:53;8.60;;;7.68;;
40284;SDS011;25997;50.214;19.354;2022-09-27T07:09:19;9.85;;;7.57;;
40284;SDS011;25997;50.214;19.354;2022-09-27T07:12:22;7.20;;;6.50;;
40284;SDS011;25997;50.214;19.354;2022-09-27T07:15:24;7.07;;;6.07;;
40284;SDS011;25997;50.214;19.354;2022-09-27T07:18:28;6.32;;;5.50;;
40284;SDS011;25997;50.214;19.354;2022-09-27T07:21:32;8.18;;;5.40;;
40284;SDS011;25997;50.214;19.354;2022-09-27T07:24:36;7.78;;;5.80;;
40284;SDS011;25997;50.214;19.354;2022-09-27T07:27:39;6.50;;;5.90;;
40284;SDS011;25997;50.214;19.354;2022-09-27T07:30:43;8.20;;;5.90;;
40284;SDS011;25997;50.214;19.354;2022-09-27T07:33:47;6.72;;;6.07;;
40284;SDS011;25997;50.214;19.354;2022-09-27T07:36:49;7.88;;;6.32;;
40284;SDS011;25997;50.214;19.354;2022-09-27T07:39:54;8.02;;;6.00;;
40284;SDS011;25997;50.214;19.354;2022-09-27T07:42:58;8.18;;;6.15;;
40284;SDS011;25997;50.214;19.354;2022-09-27T07:46:00;26.17;;;23.35;;
40284;SDS011;25997;50.214;19.354;2022-09-27T07:49:21;18.63;;;16.92;;
40284;SDS011;25997;50.214;19.354;2022-09-27T07:52:24;11.77;;;9.63;;
40284;SDS011;25997;50.214;19.354;2022-09-27T07:55:50;10.50;;;9.50;;
40284;SDS011;25997;50.214;19.354;2022-09-27T07:58:56;7.88;;;6.90;;
40284;SDS011;25997;50.214;19.354;2022-09-27T08:01:59;12.55;;;10.10;;
40284;SDS011;25997;50.214;19.354;2022-09-27T08:05:02;6.72;;;5.80;;
40284;SDS011;25997;50.214;19.354;2022-09-27T08:08:05;15.60;;;14.05;;
40284;SDS011;25997;50.214;19.354;2022-09-27T08:11:13;11.57;;;10.45;;
40284;SDS011;25997;50.214;19.354;2022-09-27T08:14:21;6.68;;;6.07;;
40284;SDS011;25997;50.214;19.354;2022-09-27T08:17:25;6.93;;;6.22;;
40284;SDS011;25997;50.214;19.354;2022-09-27T08:20:40;6.40;;;5.05;;
40284;SDS011;25997;50.214;19.354;2022-09-27T08:24:01;7.20;;;5.07;;
40284;SDS011;25997;50.214;19.354;2022-09-27T08:27:25;6.78;;;5.57;;
40284;SDS011;25997;50.214;19.354;2022-09-27T08:30:31;9.25;;;5.90;;
40284;SDS011;25997;50.214;19.354;2022-09-27T08:33:35;7.47;;;5.32;;
40284;SDS011;25997;50.214;19.354;2022-09-27T08:36:38;15.27;;;14.00;;
40284;SDS011;25997;50.214;19.354;2022-09-27T08:39:40;6.55;;;4.90;;
40284;SDS011;25997;50.214;19.354;2022-09-27T08:42:45;6.03;;;4.55;;
40284;SDS011;25997;50.214;19.354;2022-09-27T08:45:59;7.63;;;5.82;;
40284;SDS011;25997;50.214;19.354;2022-09-27T08:49:09;10.30;;;7.60;;
40284;SDS011;25997;50.214;19.354;2022-09-27T08:52:17;5.50;;;4.53;;
40284;SDS011;25997;50.214;19.354;2022-09-27T08:55:23;9.90;;;7.13;;
40284;SDS011;25997;50.214;19.354;2022-09-27T08:58:32;7.30;;;6.22;;
40284;SDS011;25997;50.214;19.354;2022-09-27T09:01:43;7.97;;;6.65;;
40284;SDS011;25997;50.214;19.354;2022-09-27T09:04:51;7.88;;;5.90;;
40284;SDS011;25997;50.214;19.354;2022-09-27T09:08:10;5.45;;;4.90;;
40284;SDS011;25997;50.214;19.354;2022-09-27T09:11:33;7.70;;;6.05;;
40284;SDS011;25997;50.214;19.354;2022-09-27T09:15:11;5.70;;;4.38;;
40284;SDS011;25997;50.214;19.354;2022-09-27T09:18:34;15.98;;;7.70;;
40284;SDS011;25997;50.214;19.354;2022-09-27T09:22:14;7.45;;;4.50;;
40284;SDS011;25997;50.214;19.354;2022-09-27T09:25:29;5.00;;;3.97;;
40284;SDS011;25997;50.214;19.354;2022-09-27T09:28:42;6.18;;;3.95;;
40284;SDS011;25997;50.214;19.354;2022-09-27T09:32:01;6.03;;;5.43;;
40284;SDS011;25997;50.214;19.354;2022-09-27T09:35:12;8.07;;;4.30;;
40284;SDS011;25997;50.214;19.354;2022-09-27T09:38:20;6.45;;;5.10;;
40284;SDS011;25997;50.214;19.354;2022-09-27T09:41:30;6.43;;;4.63;;
40284;SDS011;25997;50.214;19.354;2022-09-27T09:44:40;5.75;;;3.95;;
40284;SDS011;25997;50.214;19.354;2022-09-27T09:47:54;5.40;;;4.53;;
40284;SDS011;25997;50.214;19.354;2022-09-27T09:51:03;5.68;;;4.43;;
40284;SDS011;25997;50.214;19.354;2022-09-27T09:54:12;4.28;;;3.88;;
40284;SDS011;25997;50.214;19.354;2022-09-27T09:57:21;8.60;;;6.32;;
40284;SDS011;25997;50.214;19.354;2022-09-27T10:00:27;7.93;;;6.07;;
40284;SDS011;25997;50.214;19.354;2022-09-27T10:03:31;7.63;;;4.90;;
40284;SDS011;25997;50.214;19.354;2022-09-27T10:06:34;4.97;;;4.47;;
40284;SDS011;25997;50.214;19.354;2022-09-27T10:09:37;20.90;;;15.93;;
40284;SDS011;25997;50.214;19.354;2022-09-27T10:13:07;27.23;;;18.58;;
40284;SDS011;25997;50.214;19.354;2022-09-27T10:16:18;10.65;;;8.10;;
40284;SDS011;25997;50.214;19.354;2022-09-27T10:19:24;4.82;;;4.07;;
40284;SDS011;25997;50.214;19.354;2022-09-27T10:22:33;15.77;;;14.18;;
40284;SDS011;25997;50.214;19.354;2022-09-27T10:25:53;8.95;;;7.68;;
40284;SDS011;25997;50.214;19.354;2022-09-27T10:29:21;8.18;;;5.78;;
40284;SDS011;25997;50.214;19.354;2022-09-27T10:32:27;7.22;;;4.63;;
40284;SDS011;25997;50.214;19.354;2022-09-27T10:35:54;4.13;;;3.50;;
40284;SDS011;25997;50.214;19.354;2022-09-27T10:42:20;5.18;;;4.68;;
40284;SDS011;25997;50.214;19.354;2022-09-27T10:45:32;5.97;;;4.43;;
40284;SDS011;25997;50.214;19.354;2022-09-27T10:49:08;6.03;;;5.20;;
40284;SDS011;25997;50.214;19.354;2022-09-27T10:52:16;4.28;;;3.88;;
40284;SDS011;25997;50.214;19.354;2022-09-27T10:55:21;4.30;;;3.47;;
40284;SDS011;25997;50.214;19.354;2022-09-27T10:58:30;4.97;;;4.30;;
40284;SDS011;25997;50.214;19.354;2022-09-27T11:01:38;4.60;;;3.80;;
40284;SDS011;25997;50.214;19.354;2022-09-27T11:05:06;5.53;;;4.93;;
40284;SDS011;25997;50.214;19.354;2022-09-27T11:11:44;6.47;;;4.50;;
40284;SDS011;25997;50.214;19.354;2022-09-27T11:14:50;7.22;;;6.20;;
40284;SDS011;25997;50.214;19.354;2022-09-27T11:17:58;6.57;;;5.72;;
40284;SDS011;25997;50.214;19.354;2022-09-27T11:21:12;6.25;;;4.45;;
40284;SDS011;25997;50.214;19.354;2022-09-27T11:24:29;6.40;;;5.28;;
40284;SDS011;25997;50.214;19.354;2022-09-27T11:27:49;10.85;;;7.13;;
40284;SDS011;25997;50.214;19.354;2022-09-27T11:31:05;5.20;;;4.70;;
40284;SDS011;25997;50.214;19.354;2022-09-27T11:34:28;4.63;;;3.67;;
40284;SDS011;25997;50.214;19.354;2022-09-27T11:37:42;7.38;;;4.60;;
40284;SDS011;25997;50.214;19.354;2022-09-27T11:41:00;7.72;;;6.28;;
40284;SDS011;25997;50.214;19.354;2022-09-27T11:48:03;5.40;;;4.10;;
40284;SDS011;25997;50.214;19.354;2022-09-27T11:51:23;6.07;;;5.47;;
40284;SDS011;25997;50.214;19.354;2022-09-27T11:54:38;11.35;;;4.30;;
40284;SDS011;25997;50.214;19.354;2022-09-27T12:01:05;4.65;;;4.07;;
40284;SDS011;25997;50.214;19.354;2022-09-27T12:04:21;6.20;;;4.00;;
40284;SDS011;25997;50.214;19.354;2022-09-27T12:07:39;6.55;;;4.18;;
40284;SDS011;25997;50.214;19.354;2022-09-27T12:10:51;7.63;;;4.15;;
40284;SDS011;25997;50.214;19.354;2022-09-27T12:14:03;4.95;;;4.45;;
40284;SDS011;25997;50.214;19.354;2022-09-27T12:17:28;5.75;;;4.22;;
40284;SDS011;25997;50.214;19.354;2022-09-27T12:20:35;5.57;;;4.93;;
40284;SDS011;25997;50.214;19.354;2022-09-27T12:23:40;6.68;;;4.95;;
40284;SDS011;25997;50.214;19.354;2022-09-27T12:27:08;5.25;;;4.75;;
40284;SDS011;25997;50.214;19.354;2022-09-27T12:30:18;6.37;;;5.20;;
40284;SDS011;25997;50.214;19.354;2022-09-27T12:33:22;6.28;;;5.38;;
40284;SDS011;25997;50.214;19.354;2022-09-27T12:36:32;8.93;;;5.40;;
40284;SDS011;25997;50.214;19.354;2022-09-27T12:39:42;8.27;;;5.40;;
40284;SDS011;25997;50.214;19.354;2022-09-27T12:42:59;9.13;;;5.40;;
40284;SDS011;25997;50.214;19.354;2022-09-27T12:46:29;6.05;;;5.15;;
40284;SDS011;25997;50.214;19.354;2022-09-27T12:49:44;6.50;;;4.70;;
40284;SDS011;25997;50.214;19.354;2022-09-27T12:53:00;7.15;;;5.30;;
40284;SDS011;25997;50.214;19.354;2022-09-27T12:56:14;6.72;;;5.18;;
40284;SDS011;25997;50.214;19.354;2022-09-27T12:59:32;6.07;;;4.70;;
40284;SDS011;25997;50.214;19.354;2022-09-27T13:02:55;7.05;;;4.90;;
40284;SDS011;25997;50.214;19.354;2022-09-27T13:06:18;7.13;;;5.07;;
40284;SDS011;25997;50.214;19.354;2022-09-27T13:09:36;4.78;;;4.25;;
40284;SDS011;25997;50.214;19.354;2022-09-27T13:12:58;6.43;;;4.50;;
40284;SDS011;25997;50.214;19.354;2022-09-27T13:16:04;5.70;;;4.50;;
40284;SDS011;25997;50.214;19.354;2022-09-27T13:22:45;6.13;;;4.80;;
40284;SDS011;25997;50.214;19.354;2022-09-27T13:26:00;11.20;;;5.10;;
40284;SDS011;25997;50.214;19.354;2022-09-27T13:32:43;9.05;;;6.38;;
40284;SDS011;25997;50.214;19.354;2022-09-27T13:36:31;14.93;;;11.68;;
40284;SDS011;25997;50.214;19.354;2022-09-27T13:39:38;12.40;;;11.30;;
40284;SDS011;25997;50.214;19.354;2022-09-27T13:43:21;5.63;;;3.70;;
40284;SDS011;25997;50.214;19.354;2022-09-27T13:47:00;8.23;;;3.95;;
40284;SDS011;25997;50.214;19.354;2022-09-27T13:50:13;7.20;;;4.70;;
40284;SDS011;25997;50.214;19.354;2022-09-27T13:53:32;10.77;;;8.60;;
40284;SDS011;25997;50.214;19.354;2022-09-27T13:56:51;11.60;;;7.10;;
40284;SDS011;25997;50.214;19.354;2022-09-27T13:59:56;10.38;;;7.20;;
40284;SDS011;25997;50.214;19.354;2022-09-27T14:03:22;11.10;;;8.43;;
40284;SDS011;25997;50.214;19.354;2022-09-27T14:06:33;8.93;;;6.45;;
40284;SDS011;25997;50.214;19.354;2022-09-27T14:09:44;6.03;;;4.80;;
40284;SDS011;25997;50.214;19.354;2022-09-27T14:12:54;7.45;;;5.30;;
40284;SDS011;25997;50.214;19.354;2022-09-27T14:15:57;6.65;;;5.88;;
40284;SDS011;25997;50.214;19.354;2022-09-27T14:19:05;14.13;;;6.93;;
40284;SDS011;25997;50.214;19.354;2022-09-27T14:22:18;11.80;;;6.88;;
40284;SDS011;25997;50.214;19.354;2022-09-27T14:25:29;11.57;;;7.93;;
40284;SDS011;25997;50.214;19.354;2022-09-27T14:28:39;8.27;;;7.32;;
40284;SDS011;25997;50.214;19.354;2022-09-27T14:32:02;8.57;;;6.65;;
40284;SDS011;25997;50.214;19.354;2022-09-27T14:35:22;7.65;;;6.30;;
40284;SDS011;25997;50.214;19.354;2022-09-27T14:38:43;9.52;;;7.85;;
40284;SDS011;25997;50.214;19.354;2022-09-27T14:41:57;9.38;;;8.30;;
40284;SDS011;25997;50.214;19.354;2022-09-27T14:45:03;8.85;;;7.28;;
40284;SDS011;25997;50.214;19.354;2022-09-27T14:48:22;8.85;;;7.18;;
40284;SDS011;25997;50.214;19.354;2022-09-27T14:51:30;10.63;;;6.47;;
40284;SDS011;25997;50.214;19.354;2022-09-27T14:54:34;6.95;;;4.65;;
40284;SDS011;25997;50.214;19.354;2022-09-27T14:57:38;5.07;;;4.20;;
40284;SDS011;25997;50.214;19.354;2022-09-27T15:00:47;4.00;;;2.97;;
40284;SDS011;25997;50.214;19.354;2022-09-27T15:03:51;5.63;;;4.72;;
40284;SDS011;25997;50.214;19.354;2022-09-27T15:06:54;5.50;;;4.78;;
40284;SDS011;25997;50.214;19.354;2022-09-27T15:09:57;4.93;;;3.92;;
40284;SDS011;25997;50.214;19.354;2022-09-27T15:13:01;5.07;;;4.20;;
40284;SDS011;25997;50.214;19.354;2022-09-27T15:16:05;6.13;;;4.63;;
40284;SDS011;25997;50.214;19.354;2022-09-27T15:19:13;5.30;;;3.78;;
40284;SDS011;25997;50.214;19.354;2022-09-27T15:22:29;5.28;;;3.58;;
40284;SDS011;25997;50.214;19.354;2022-09-27T15:25:35;6.38;;;5.45;;
40284;SDS011;25997;50.214;19.354;2022-09-27T15:28:43;6.47;;;5.55;;
40284;SDS011;25997;50.214;19.354;2022-09-27T15:31:56;8.73;;;4.28;;
40284;SDS011;25997;50.214;19.354;2022-09-27T15:35:05;7.50;;;4.47;;
40284;SDS011;25997;50.214;19.354;2022-09-27T15:38:10;7.38;;;6.00;;
40284;SDS011;25997;50.214;19.354;2022-09-27T15:41:23;8.07;;;7.28;;
40284;SDS011;25997;50.214;19.354;2022-09-27T15:44:35;10.32;;;8.80;;
40284;SDS011;25997;50.214;19.354;2022-09-27T15:47:49;15.60;;;13.73;;
40284;SDS011;25997;50.214;19.354;2022-09-27T15:50:51;7.28;;;4.72;;
40284;SDS011;25997;50.214;19.354;2022-09-27T15:53:54;11.63;;;8.63;;
40284;SDS011;25997;50.214;19.354;2022-09-27T15:56:59;10.30;;;8.57;;
40284;SDS011;25997;50.214;19.354;2022-09-27T16:00:09;8.88;;;7.57;;
40284;SDS011;25997;50.214;19.354;2022-09-27T16:03:16;14.85;;;13.07;;
40284;SDS011;25997;50.214;19.354;2022-09-27T16:06:18;23.35;;;16.88;;
40284;SDS011;25997;50.214;19.354;2022-09-27T16:09:25;25.92;;;18.15;;
40284;SDS011;25997;50.214;19.354;2022-09-27T16:12:28;11.45;;;9.02;;
40284;SDS011;25997;50.214;19.354;2022-09-27T16:15:32;8.13;;;7.00;;
40284;SDS011;25997;50.214;19.354;2022-09-27T16:18:35;11.40;;;8.48;;
40284;SDS011;25997;50.214;19.354;2022-09-27T16:21:37;14.30;;;12.80;;
40284;SDS011;25997;50.214;19.354;2022-09-27T16:24:42;10.65;;;9.55;;
40284;SDS011;25997;50.214;19.354;2022-09-27T16:27:45;9.73;;;7.57;;
40284;SDS011;25997;50.214;19.354;2022-09-27T16:30:49;11.25;;;8.55;;
40284;SDS011;25997;50.214;19.354;2022-09-27T16:33:52;15.32;;;13.80;;
40284;SDS011;25997;50.214;19.354;2022-09-27T16:36:54;16.48;;;13.23;;
40284;SDS011;25997;50.214;19.354;2022-09-27T16:39:57;23.30;;;15.43;;
40284;SDS011;25997;50.214;19.354;2022-09-27T16:42:59;21.95;;;17.50;;
40284;SDS011;25997;50.214;19.354;2022-09-27T16:46:06;48.97;;;44.00;;
40284;SDS011;25997;50.214;19.354;2022-09-27T16:49:12;29.10;;;26.10;;
40284;SDS011;25997;50.214;19.354;2022-09-27T16:52:29;99.72;;;90.57;;
40284;SDS011;25997;50.214;19.354;2022-09-27T16:55:34;35.47;;;32.00;;
40284;SDS011;25997;50.214;19.354;2022-09-27T16:58:37;20.88;;;18.77;;
40284;SDS011;25997;50.214;19.354;2022-09-27T17:01:41;23.67;;;21.27;;
40284;SDS011;25997;50.214;19.354;2022-09-27T17:04:44;22.45;;;20.20;;
40284;SDS011;25997;50.214;19.354;2022-09-27T17:07:48;16.92;;;15.32;;
40284;SDS011;25997;50.214;19.354;2022-09-27T17:10:51;24.08;;;21.73;;
40284;SDS011;25997;50.214;19.354;2022-09-27T17:13:53;24.30;;;21.90;;
40284;SDS011;25997;50.214;19.354;2022-09-27T17:16:57;22.63;;;19.77;;
40284;SDS011;25997;50.214;19.354;2022-09-27T17:20:00;24.83;;;22.63;;
40284;SDS011;25997;50.214;19.354;2022-09-27T17:23:03;30.85;;;27.98;;
40284;SDS011;25997;50.214;19.354;2022-09-27T17:26:06;23.85;;;20.75;;
40284;SDS011;25997;50.214;19.354;2022-09-27T17:29:17;18.27;;;16.52;;
40284;SDS011;25997;50.214;19.354;2022-09-27T17:32:21;21.80;;;19.67;;
40284;SDS011;25997;50.214;19.354;2022-09-27T17:35:24;23.45;;;21.00;;
40284;SDS011;25997;50.214;19.354;2022-09-27T17:38:27;20.42;;;16.48;;
40284;SDS011;25997;50.214;19.354;2022-09-27T17:41:30;22.85;;;20.55;;
40284;SDS011;25997;50.214;19.354;2022-09-27T17:44:34;21.63;;;19.35;;
40284;SDS011;25997;50.214;19.354;2022-09-27T17:47:38;21.67;;;19.63;;
40284;SDS011;25997;50.214;19.354;2022-09-27T17:50:58;25.17;;;22.73;;
40284;SDS011;25997;50.214;19.354;2022-09-27T17:54:01;27.30;;;24.65;;
40284;SDS011;25997;50.214;19.354;2022-09-27T17:57:04;33.13;;;29.73;;
40284;SDS011;25997;50.214;19.354;2022-09-27T18:00:07;31.15;;;28.08;;
40284;SDS011;25997;50.214;19.354;2022-09-27T18:03:15;32.92;;;29.63;;
40284;SDS011;25997;50.214;19.354;2022-09-27T18:06:17;62.03;;;46.65;;
40284;SDS011;25997;50.214;19.354;2022-09-27T18:09:20;64.97;;;48.78;;
40284;SDS011;25997;50.214;19.354;2022-09-27T18:12:23;78.15;;;56.65;;
40284;SDS011;25997;50.214;19.354;2022-09-27T18:15:32;84.57;;;59.53;;
40284;SDS011;25997;50.214;19.354;2022-09-27T18:18:41;41.15;;;34.38;;
40284;SDS011;25997;50.214;19.354;2022-09-27T18:21:46;39.30;;;35.13;;
40284;SDS011;25997;50.214;19.354;2022-09-27T18:24:49;44.88;;;40.08;;
40284;SDS011;25997;50.214;19.354;2022-09-27T18:27:52;44.58;;;39.90;;
40284;SDS011;25997;50.214;19.354;2022-09-27T18:31:00;35.30;;;31.50;;
40284;SDS011;25997;50.214;19.354;2022-09-27T18:34:04;68.85;;;62.85;;
40284;SDS011;25997;50.214;19.354;2022-09-27T18:37:07;64.25;;;58.75;;
40284;SDS011;25997;50.214;19.354;2022-09-27T18:40:10;76.45;;;69.10;;
40284;SDS011;25997;50.214;19.354;2022-09-27T18:43:12;38.90;;;34.40;;
40284;SDS011;25997;50.214;19.354;2022-09-27T18:46:16;50.55;;;39.80;;
40284;SDS011;25997;50.214;19.354;2022-09-27T18:49:22;46.63;;;40.25;;
40284;SDS011;25997;50.214;19.354;2022-09-27T18:52:27;41.33;;;31.88;;
40284;SDS011;25997;50.214;19.354;2022-09-27T18:55:30;42.20;;;34.78;;